• Join FlightAware (Why Join?)
  • Login
  • US Flag 
06:34AM EST


 

Airport Tracker/Info


-or-


 

Live Flight TrackerFlight Track Log ✈ N993SH ✈ 05-Mar-2008 ✈ KPSC - KBDN

Flight Track Log - Related Links

Times and Time Zones

All times are in EST time to prevent confusion due to time zone crossing. See the N993SH flight status page for this flight to view local times or setup timezone preferences in your user account.

Time Position Orientation Groundspeed Altitude Reporting Facility
EST Latitude Longitude Course Direction KTS MPH feet Rate Location/Type
03:00PM 46.3000 -119.2170 250° West 142 163 21,000  Level
03:01PM 46.2833 -119.2830 270° West 142 163 4,900 -7,320 Descending
03:02PM 46.2833 -119.3330 226° Southwest 147 169 6,400 1,380 Climbing
03:03PM 46.2500 -119.3830 215° Southwest 142 163 7,700 1,260 Climbing
03:04PM 46.2167 -119.4170 205° Southwest 153 176 9,000 1,020 Climbing
03:05PM 46.1667 -119.4500 205° Southwest 165 190 9,800 1,020 Climbing
03:06PM 46.1167 -119.4830 205° Southwest 182 209 11,100 1,260 Climbing
03:07PM 46.0667 -119.5170 214° Southwest 188 216 12,400 1,080 Climbing
03:08PM 46.0333 -119.5500 215° Southwest 193 222 13,300 900 Climbing
03:09PM 45.9833 -119.6000 205° Southwest 203 234 14,300 900 Climbing
03:10PM 45.9333 -119.6330 215° Southwest 208 239 15,200 1,020 Climbing
03:11PM 45.8833 -119.6830 215° Southwest 215 247 16,400 1,200 Climbing
03:12PM 45.8333 -119.7330 208° Southwest 220 253 17,700 900 Climbing
03:13PM 45.7667 -119.7830 215° Southwest 220 253 18,300 900 Climbing
03:14PM 45.7167 -119.8330 215° Southwest 220 253 19,500 1,080 Climbing
03:15PM 45.6667 -119.8830 205° Southwest 215 247 20,500 720 Climbing
03:16PM 45.6167 -119.9170 215° Southwest 222 255 21,000 240 Climbing
03:17PM 45.5667 -119.9670 215° Southwest 232 267 21,000  Level
03:18PM 45.5000 -120.0330 208° Southwest 249 287 21,000  Level
03:19PM 45.4333 -120.0830 215° Southwest 264 304 21,000  Level
03:20PM 45.3833 -120.1330 215° Southwest 269 310 21,000  Level
03:21PM 45.3167 -120.2000 208° Southwest 269 310 21,000  Level
03:22PM 45.2500 -120.2500 208° Southwest 269 310 21,000  Level
03:23PM 45.1833 -120.3000 223° Southwest 269 310 21,000  Level
03:24PM 45.1333 -120.3670 208° Southwest 269 310 21,000  Level
03:25PM 45.0667 -120.4170 215° Southwest 264 304 21,000 -360 Level
03:26PM 45.0000 -120.4830 215° Southwest 264 304 20,300 -660 Descending
03:27PM 44.9500 -120.5330 208° Southwest 264 304 19,700 -900 Descending
03:28PM 44.8833 -120.5830 216° Southwest 275 316 18,500 -1,020 Descending
03:29PM 44.8167 -120.6500 216° Southwest 280 322 17,700 -1,140 Descending
03:30PM 44.7500 -120.7170 203° Southwest 280 322 16,300 -1,440 Descending
03:31PM 44.6667 -120.7670 208° Southwest 285 328 14,900 -1,440 Descending
03:32PM 44.6000 -120.8170 208° Southwest 285 328 13,500 -1,380 Descending